sensor_id;sensor_type;location;lat;lon;timestamp;pressure;altitude;pressure_sealevel;temperature;humidity
40117;BME280;25829;50.228;18.936;2022-08-01T00:01:39;98382.75;;;13.67;78.38
40117;BME280;25829;50.228;18.936;2022-08-01T00:04:46;98375.47;;;13.63;78.22
40117;BME280;25829;50.228;18.936;2022-08-01T00:07:47;98379.38;;;13.60;77.99
40117;BME280;25829;50.228;18.936;2022-08-01T00:10:48;98371.56;;;13.54;78.08
40117;BME280;25829;50.228;18.936;2022-08-01T00:13:48;98381.00;;;13.50;78.37
40117;BME280;25829;50.228;18.936;2022-08-01T00:16:49;98379.84;;;13.46;78.29
40117;BME280;25829;50.228;18.936;2022-08-01T00:19:50;98378.44;;;13.43;78.05
40117;BME280;25829;50.228;18.936;2022-08-01T00:22:51;98378.91;;;13.40;78.14
40117;BME280;25829;50.228;18.936;2022-08-01T00:25:51;98371.63;;;13.35;78.18
40117;BME280;25829;50.228;18.936;2022-08-01T00:28:52;98363.78;;;13.29;77.86
40117;BME280;25829;50.228;18.936;2022-08-01T00:31:53;98365.16;;;13.19;77.77
40117;BME280;25829;50.228;18.936;2022-08-01T00:34:55;98367.63;;;13.14;78.09
40117;BME280;25829;50.228;18.936;2022-08-01T00:37:55;98367.63;;;13.14;78.14
40117;BME280;25829;50.228;18.936;2022-08-01T00:40:56;98366.59;;;13.15;78.64
40117;BME280;25829;50.228;18.936;2022-08-01T00:43:57;98361.78;;;13.12;78.38
40117;BME280;25829;50.228;18.936;2022-08-01T00:46:58;98366.47;;;13.10;78.60
40117;BME280;25829;50.228;18.936;2022-08-01T00:49:59;98366.72;;;13.09;78.56
40117;BME280;25829;50.228;18.936;2022-08-01T00:53:00;98372.22;;;13.07;78.50
40117;BME280;25829;50.228;18.936;2022-08-01T00:56:01;98369.22;;;13.04;78.00
40117;BME280;25829;50.228;18.936;2022-08-01T00:59:03;98367.25;;;12.99;78.04
40117;BME280;25829;50.228;18.936;2022-08-01T01:02:04;98372.19;;;12.95;77.99
40117;BME280;25829;50.228;18.936;2022-08-01T01:05:05;98377.13;;;12.92;77.63
40117;BME280;25829;50.228;18.936;2022-08-01T01:08:16;98386.78;;;12.86;77.48
40117;BME280;25829;50.228;18.936;2022-08-01T01:11:26;98386.84;;;12.80;77.69
40117;BME280;25829;50.228;18.936;2022-08-01T01:15:11;98388.34;;;12.76;77.54
40117;BME280;25829;50.228;18.936;2022-08-01T01:18:23;98379.69;;;12.68;77.84
40117;BME280;25829;50.228;18.936;2022-08-01T01:22:00;98374.03;;;12.65;77.46
40117;BME280;25829;50.228;18.936;2022-08-01T01:25:26;98375.25;;;12.62;77.34
40117;BME280;25829;50.228;18.936;2022-08-01T01:28:40;98366.16;;;12.58;77.65
40117;BME280;25829;50.228;18.936;2022-08-01T01:44:48;98365.59;;;12.38;77.05
40117;BME280;25829;50.228;18.936;2022-08-01T01:47:50;98365.59;;;12.38;77.32
40117;BME280;25829;50.228;18.936;2022-08-01T01:50:53;98367.88;;;12.34;77.14
40117;BME280;25829;50.228;18.936;2022-08-01T01:53:56;98356.91;;;12.31;77.15
40117;BME280;25829;50.228;18.936;2022-08-01T01:56:59;98359.03;;;12.22;76.59
40117;BME280;25829;50.228;18.936;2022-08-01T02:00:01;98353.47;;;12.12;76.94
40117;BME280;25829;50.228;18.936;2022-08-01T02:03:07;98357.00;;;12.06;77.01
40117;BME280;25829;50.228;18.936;2022-08-01T02:06:11;98356.41;;;12.04;77.43
40117;BME280;25829;50.228;18.936;2022-08-01T02:09:17;98355.38;;;12.05;77.75
40117;BME280;25829;50.228;18.936;2022-08-01T02:12:20;98361.69;;;12.04;77.29
40117;BME280;25829;50.228;18.936;2022-08-01T02:15:23;98358.28;;;11.96;77.23
40117;BME280;25829;50.228;18.936;2022-08-01T02:18:25;98354.22;;;11.94;77.39
40117;BME280;25829;50.228;18.936;2022-08-01T02:25:15;98343.66;;;11.94;77.31
40117;BME280;25829;50.228;18.936;2022-08-01T02:28:24;98343.50;;;11.89;77.17
40117;BME280;25829;50.228;18.936;2022-08-01T02:31:32;98353.09;;;11.83;76.90
40117;BME280;25829;50.228;18.936;2022-08-01T02:34:34;98362.72;;;11.77;77.20
40117;BME280;25829;50.228;18.936;2022-08-01T02:37:38;98367.22;;;11.77;77.52
40117;BME280;25829;50.228;18.936;2022-08-01T02:40:42;98360.28;;;11.76;77.69
40117;BME280;25829;50.228;18.936;2022-08-01T02:43:50;98364.78;;;11.75;77.91
40117;BME280;25829;50.228;18.936;2022-08-01T02:46:57;98364.78;;;11.75;77.47
40117;BME280;25829;50.228;18.936;2022-08-01T02:49:59;98354.63;;;11.72;77.14
40117;BME280;25829;50.228;18.936;2022-08-01T02:53:01;98358.88;;;11.73;77.45
40117;BME280;25829;50.228;18.936;2022-08-01T02:56:08;98358.31;;;11.71;77.65
40117;BME280;25829;50.228;18.936;2022-08-01T02:59:13;98361.38;;;11.68;77.74
40117;BME280;25829;50.228;18.936;2022-08-01T03:02:16;98363.66;;;11.65;77.34
40117;BME280;25829;50.228;18.936;2022-08-01T03:05:17;98364.88;;;11.62;77.55
40117;BME280;25829;50.228;18.936;2022-08-01T03:08:20;98368.63;;;11.54;77.30
40117;BME280;25829;50.228;18.936;2022-08-01T03:11:24;98357.66;;;11.51;77.68
40117;BME280;25829;50.228;18.936;2022-08-01T03:14:27;98362.97;;;11.51;77.31
40117;BME280;25829;50.228;18.936;2022-08-01T03:17:31;98347.91;;;11.51;77.33
40117;BME280;25829;50.228;18.936;2022-08-01T03:20:34;98349.75;;;11.51;77.35
40117;BME280;25829;50.228;18.936;2022-08-01T03:23:36;98350.78;;;11.50;77.38
40117;BME280;25829;50.228;18.936;2022-08-01T03:26:39;98361.34;;;11.50;77.19
40117;BME280;25829;50.228;18.936;2022-08-01T03:29:42;98368.66;;;11.48;77.46
40117;BME280;25829;50.228;18.936;2022-08-01T03:32:44;98372.34;;;11.47;77.48
40117;BME280;25829;50.228;18.936;2022-08-01T03:35:49;98370.13;;;11.44;77.45
40117;BME280;25829;50.228;18.936;2022-08-01T03:38:57;98371.53;;;11.46;77.45
40117;BME280;25829;50.228;18.936;2022-08-01T03:42:02;98370.28;;;11.49;77.68
40117;BME280;25829;50.228;18.936;2022-08-01T03:45:11;98368.25;;;11.51;77.35
40117;BME280;25829;50.228;18.936;2022-08-01T03:48:17;98375.34;;;11.50;77.43
40117;BME280;25829;50.228;18.936;2022-08-01T03:51:18;98371.09;;;11.49;77.80
40117;BME280;25829;50.228;18.936;2022-08-01T03:54:24;98370.28;;;11.49;77.75
40117;BME280;25829;50.228;18.936;2022-08-01T03:57:27;98368.66;;;11.48;77.44
40117;BME280;25829;50.228;18.936;2022-08-01T04:00:29;98368.91;;;11.46;77.30
40117;BME280;25829;50.228;18.936;2022-08-01T04:03:30;98373.56;;;11.44;77.90
40117;BME280;25829;50.228;18.936;2022-08-01T04:06:32;98381.88;;;11.48;78.14
40117;BME280;25829;50.228;18.936;2022-08-01T04:09:33;98370.72;;;11.46;77.87
40117;BME280;25829;50.228;18.936;2022-08-01T04:12:34;98379.09;;;11.43;77.83
40117;BME280;25829;50.228;18.936;2022-08-01T04:15:35;98375.19;;;11.45;78.00
40117;BME280;25829;50.228;18.936;2022-08-01T04:18:36;98371.91;;;11.50;78.18
40117;BME280;25829;50.228;18.936;2022-08-01T04:21:37;98387.09;;;11.54;78.78
40117;BME280;25829;50.228;18.936;2022-08-01T04:24:39;98385.22;;;11.62;78.81
40117;BME280;25829;50.228;18.936;2022-08-01T04:27:43;98385.97;;;11.69;78.78
40117;BME280;25829;50.228;18.936;2022-08-01T04:30:49;98384.31;;;11.74;79.04
40117;BME280;25829;50.228;18.936;2022-08-01T04:33:51;98383.22;;;11.82;79.21
40117;BME280;25829;50.228;18.936;2022-08-01T04:36:55;98374.63;;;11.87;79.12
40117;BME280;25829;50.228;18.936;2022-08-01T04:39:57;98374.78;;;11.92;78.90
40117;BME280;25829;50.228;18.936;2022-08-01T04:43:00;98351.16;;;11.97;79.20
40117;BME280;25829;50.228;18.936;2022-08-01T04:46:02;98370.22;;;12.06;79.51
40117;BME280;25829;50.228;18.936;2022-08-01T04:49:06;98372.56;;;12.14;79.54
40117;BME280;25829;50.228;18.936;2022-08-01T04:52:07;98381.03;;;12.22;79.92
40117;BME280;25829;50.228;18.936;2022-08-01T04:55:08;98382.13;;;12.33;79.71
40117;BME280;25829;50.228;18.936;2022-08-01T04:58:10;98377.13;;;12.43;79.52
40117;BME280;25829;50.228;18.936;2022-08-01T05:01:13;98373.50;;;12.56;79.98
40117;BME280;25829;50.228;18.936;2022-08-01T05:04:14;98383.13;;;12.69;79.96
40117;BME280;25829;50.228;18.936;2022-08-01T05:07:15;98384.00;;;12.81;80.11
40117;BME280;25829;50.228;18.936;2022-08-01T05:10:16;98397.88;;;12.95;80.40
40117;BME280;25829;50.228;18.936;2022-08-01T05:13:16;98384.22;;;13.10;80.63
40117;BME280;25829;50.228;18.936;2022-08-01T05:16:17;98380.63;;;13.23;80.43
40117;BME280;25829;50.228;18.936;2022-08-01T05:19:18;98381.22;;;13.36;80.71
40117;BME280;25829;50.228;18.936;2022-08-01T05:22:19;98383.44;;;13.51;80.93
40117;BME280;25829;50.228;18.936;2022-08-01T05:25:20;98374.44;;;13.64;80.92
40117;BME280;25829;50.228;18.936;2022-08-01T05:28:21;98370.75;;;13.77;80.68
40117;BME280;25829;50.228;18.936;2022-08-01T05:31:21;98367.09;;;13.89;80.78
40117;BME280;25829;50.228;18.936;2022-08-01T05:34:22;98371.34;;;14.02;80.85
40117;BME280;25829;50.228;18.936;2022-08-01T05:37:23;98364.75;;;14.17;80.67
40117;BME280;25829;50.228;18.936;2022-08-01T05:40:24;98365.56;;;14.29;80.82
40117;BME280;25829;50.228;18.936;2022-08-01T05:43:25;98373.28;;;14.42;80.75
40117;BME280;25829;50.228;18.936;2022-08-01T05:46:25;98365.25;;;14.54;80.61
40117;BME280;25829;50.228;18.936;2022-08-01T05:49:26;98369.28;;;14.68;80.58
40117;BME280;25829;50.228;18.936;2022-08-01T05:52:27;98368.44;;;14.79;80.43
40117;BME280;25829;50.228;18.936;2022-08-01T05:55:29;98368.94;;;14.93;80.37
40117;BME280;25829;50.228;18.936;2022-08-01T05:58:29;98365.53;;;15.09;80.47
40117;BME280;25829;50.228;18.936;2022-08-01T06:01:30;98366.59;;;15.25;80.30
40117;BME280;25829;50.228;18.936;2022-08-01T06:04:31;98367.09;;;15.39;79.75
40117;BME280;25829;50.228;18.936;2022-08-01T06:07:32;98373.72;;;15.53;79.40
40117;BME280;25829;50.228;18.936;2022-08-01T06:10:33;98380.31;;;15.68;79.41
40117;BME280;25829;50.228;18.936;2022-08-01T06:13:34;98377.34;;;15.81;78.97
40117;BME280;25829;50.228;18.936;2022-08-01T06:16:34;98381.25;;;15.95;78.95
40117;BME280;25829;50.228;18.936;2022-08-01T06:19:35;98382.78;;;16.08;78.86
40117;BME280;25829;50.228;18.936;2022-08-01T06:22:36;98384.63;;;16.24;78.78
40117;BME280;25829;50.228;18.936;2022-08-01T06:25:37;98388.06;;;16.42;78.74
40117;BME280;25829;50.228;18.936;2022-08-01T06:28:38;98389.84;;;16.58;78.55
40117;BME280;25829;50.228;18.936;2022-08-01T06:31:39;98378.56;;;16.73;77.95
40117;BME280;25829;50.228;18.936;2022-08-01T06:34:39;98382.69;;;16.86;77.56
40117;BME280;25829;50.228;18.936;2022-08-01T06:37:40;98381.25;;;17.00;76.76
40117;BME280;25829;50.228;18.936;2022-08-01T06:40:41;98384.56;;;17.12;76.67
40117;BME280;25829;50.228;18.936;2022-08-01T06:43:42;98384.19;;;17.26;75.91
40117;BME280;25829;50.228;18.936;2022-08-01T06:46:43;98376.81;;;17.38;75.55
40117;BME280;25829;50.228;18.936;2022-08-01T06:49:43;98381.19;;;17.49;74.84
40117;BME280;25829;50.228;18.936;2022-08-01T06:52:44;98381.59;;;17.68;74.87
40117;BME280;25829;50.228;18.936;2022-08-01T06:55:45;98376.91;;;17.80;73.25
40117;BME280;25829;50.228;18.936;2022-08-01T06:58:46;98367.59;;;17.88;72.50
40117;BME280;25829;50.228;18.936;2022-08-01T07:01:47;98379.16;;;17.99;70.96
40117;BME280;25829;50.228;18.936;2022-08-01T07:04:47;98379.25;;;18.09;70.94
40117;BME280;25829;50.228;18.936;2022-08-01T07:07:48;98380.38;;;18.23;71.09
40117;BME280;25829;50.228;18.936;2022-08-01T07:10:50;98379.13;;;18.36;69.11
40117;BME280;25829;50.228;18.936;2022-08-01T07:13:51;98371.97;;;18.52;70.20
40117;BME280;25829;50.228;18.936;2022-08-01T07:16:52;98374.19;;;18.75;70.65
40117;BME280;25829;50.228;18.936;2022-08-01T07:19:53;98377.75;;;18.96;69.70
40117;BME280;25829;50.228;18.936;2022-08-01T07:22:54;98374.31;;;19.16;69.61
40117;BME280;25829;50.228;18.936;2022-08-01T07:25:55;98369.75;;;19.42;69.49
40117;BME280;25829;50.228;18.936;2022-08-01T07:28:56;98377.03;;;19.67;69.07
40117;BME280;25829;50.228;18.936;2022-08-01T07:31:57;98385.84;;;19.83;67.66
40117;BME280;25829;50.228;18.936;2022-08-01T07:34:58;98373.75;;;19.91;66.60
40117;BME280;25829;50.228;18.936;2022-08-01T07:37:59;98373.75;;;20.01;66.99
40117;BME280;25829;50.228;18.936;2022-08-01T07:41:00;98371.06;;;20.16;66.83
40117;BME280;25829;50.228;18.936;2022-08-01T07:44:01;98377.38;;;20.51;66.16
40117;BME280;25829;50.228;18.936;2022-08-01T07:47:02;98374.56;;;20.76;63.44
40117;BME280;25829;50.228;18.936;2022-08-01T07:50:04;98377.69;;;20.94;62.37
40117;BME280;25829;50.228;18.936;2022-08-01T07:53:05;98365.56;;;21.07;63.03
40117;BME280;25829;50.228;18.936;2022-08-01T07:56:06;98372.72;;;21.21;63.15
40117;BME280;25829;50.228;18.936;2022-08-01T07:59:07;98371.81;;;21.36;63.06
40117;BME280;25829;50.228;18.936;2022-08-01T08:02:08;98370.94;;;21.46;62.43
40117;BME280;25829;50.228;18.936;2022-08-01T08:05:09;98366.97;;;21.38;59.25
40117;BME280;25829;50.228;18.936;2022-08-01T08:08:09;98365.75;;;21.20;60.50
40117;BME280;25829;50.228;18.936;2022-08-01T08:11:10;98364.69;;;21.16;61.84
40117;BME280;25829;50.228;18.936;2022-08-01T08:14:11;98363.09;;;21.20;62.08
40117;BME280;25829;50.228;18.936;2022-08-01T08:17:12;98365.75;;;21.20;61.95
40117;BME280;25829;50.228;18.936;2022-08-01T08:20:13;98380.50;;;21.23;62.54
40117;BME280;25829;50.228;18.936;2022-08-01T08:23:14;98379.66;;;21.28;62.73
40117;BME280;25829;50.228;18.936;2022-08-01T08:26:33;98376.66;;;21.34;62.41
40117;BME280;25829;50.228;18.936;2022-08-01T08:29:34;98375.03;;;21.38;62.44
40117;BME280;25829;50.228;18.936;2022-08-01T08:32:35;98379.78;;;21.46;62.55
40117;BME280;25829;50.228;18.936;2022-08-01T08:35:39;98379.94;;;21.60;62.95
40117;BME280;25829;50.228;18.936;2022-08-01T08:38:40;98384.66;;;21.74;61.72
40117;BME280;25829;50.228;18.936;2022-08-01T08:41:41;98380.38;;;21.73;60.96
40117;BME280;25829;50.228;18.936;2022-08-01T08:44:42;98379.28;;;21.74;61.10
40117;BME280;25829;50.228;18.936;2022-08-01T08:47:44;98382.19;;;21.77;61.38
40117;BME280;25829;50.228;18.936;2022-08-01T08:50:47;98388.59;;;21.81;61.70
40117;BME280;25829;50.228;18.936;2022-08-01T08:53:48;98385.34;;;21.84;61.30
40117;BME280;25829;50.228;18.936;2022-08-01T08:56:53;98389.13;;;21.83;60.73
40117;BME280;25829;50.228;18.936;2022-08-01T08:59:54;98391.53;;;21.85;60.85
40117;BME280;25829;50.228;18.936;2022-08-01T09:02:56;98383.16;;;21.91;61.07
40117;BME280;25829;50.228;18.936;2022-08-01T09:05:57;98393.00;;;22.01;61.23
40117;BME280;25829;50.228;18.936;2022-08-01T09:08:57;98391.47;;;22.19;61.36
40117;BME280;25829;50.228;18.936;2022-08-01T09:11:59;98390.53;;;22.34;61.29
40117;BME280;25829;50.228;18.936;2022-08-01T09:15:00;98401.75;;;22.41;60.47
40117;BME280;25829;50.228;18.936;2022-08-01T09:18:01;98395.50;;;22.46;59.67
40117;BME280;25829;50.228;18.936;2022-08-01T09:21:13;98401.41;;;22.48;58.26
40117;BME280;25829;50.228;18.936;2022-08-01T09:24:15;98396.16;;;22.56;59.32
40117;BME280;25829;50.228;18.936;2022-08-01T09:27:20;98397.03;;;22.76;59.17
40117;BME280;25829;50.228;18.936;2022-08-01T09:30:24;98395.88;;;23.01;58.79
40117;BME280;25829;50.228;18.936;2022-08-01T09:33:25;98404.16;;;23.23;59.08
40117;BME280;25829;50.228;18.936;2022-08-01T09:36:57;98406.56;;;23.44;57.50
40117;BME280;25829;50.228;18.936;2022-08-01T09:39:58;98402.44;;;23.51;58.18
40117;BME280;25829;50.228;18.936;2022-08-01T09:43:10;98409.84;;;23.59;56.48
40117;BME280;25829;50.228;18.936;2022-08-01T09:46:11;98412.00;;;23.57;57.02
40117;BME280;25829;50.228;18.936;2022-08-01T09:49:12;98412.91;;;23.53;56.94
40117;BME280;25829;50.228;18.936;2022-08-01T09:52:16;98413.78;;;23.48;57.25
40117;BME280;25829;50.228;18.936;2022-08-01T09:55:21;98418.97;;;23.45;57.57
40117;BME280;25829;50.228;18.936;2022-08-01T09:58:21;98417.94;;;23.41;57.45
40117;BME280;25829;50.228;18.936;2022-08-01T10:01:23;98415.53;;;23.39;57.57
40117;BME280;25829;50.228;18.936;2022-08-01T10:04:23;98412.13;;;23.33;57.63
40117;BME280;25829;50.228;18.936;2022-08-01T10:07:25;98417.84;;;23.27;57.08
40117;BME280;25829;50.228;18.936;2022-08-01T10:10:26;98423.53;;;23.25;57.50
40117;BME280;25829;50.228;18.936;2022-08-01T10:13:27;98416.53;;;23.24;57.19
40117;BME280;25829;50.228;18.936;2022-08-01T10:16:38;98407.47;;;23.20;56.76
40117;BME280;25829;50.228;18.936;2022-08-01T10:20:35;98413.22;;;23.14;55.64
40117;BME280;25829;50.228;18.936;2022-08-01T10:24:45;98414.59;;;23.11;55.54
40117;BME280;25829;50.228;18.936;2022-08-01T10:28:41;98410.56;;;23.08;55.45
40117;BME280;25829;50.228;18.936;2022-08-01T10:32:52;98410.56;;;23.08;56.27
40117;BME280;25829;50.228;18.936;2022-08-01T10:36:57;98408.97;;;23.07;57.09
40117;BME280;25829;50.228;18.936;2022-08-01T10:40:48;98412.38;;;23.13;56.65
40117;BME280;25829;50.228;18.936;2022-08-01T10:44:41;98410.31;;;23.10;56.95
40117;BME280;25829;50.228;18.936;2022-08-01T10:48:31;98411.47;;;23.04;56.42
40117;BME280;25829;50.228;18.936;2022-08-01T10:51:37;98406.06;;;23.04;56.42
40117;BME280;25829;50.228;18.936;2022-08-01T10:54:39;98404.19;;;23.04;56.08
40117;BME280;25829;50.228;18.936;2022-08-01T10:57:45;98406.50;;;23.11;56.13
40117;BME280;25829;50.228;18.936;2022-08-01T11:00:46;98411.53;;;23.18;56.01
40117;BME280;25829;50.228;18.936;2022-08-01T11:07:08;98410.53;;;23.32;55.43
40117;BME280;25829;50.228;18.936;2022-08-01T11:10:40;98416.13;;;23.36;55.08
40117;BME280;25829;50.228;18.936;2022-08-01T11:14:05;98411.31;;;23.33;55.07
40117;BME280;25829;50.228;18.936;2022-08-01T11:17:38;98424.28;;;23.31;54.82
40117;BME280;25829;50.228;18.936;2022-08-01T11:20:54;98412.75;;;23.25;55.42
40117;BME280;25829;50.228;18.936;2022-08-01T11:23:57;98422.28;;;23.18;55.89
40117;BME280;25829;50.228;18.936;2022-08-01T11:27:31;98415.25;;;23.03;55.15
40117;BME280;25829;50.228;18.936;2022-08-01T11:30:32;98418.13;;;22.87;56.36
40117;BME280;25829;50.228;18.936;2022-08-01T11:36:42;98422.44;;;22.64;56.67
40117;BME280;25829;50.228;18.936;2022-08-01T11:39:43;98413.09;;;22.57;57.06
40117;BME280;25829;50.228;18.936;2022-08-01T11:43:16;98414.53;;;22.49;56.66
40117;BME280;25829;50.228;18.936;2022-08-01T11:46:17;98407.91;;;22.41;57.56
40117;BME280;25829;50.228;18.936;2022-08-01T11:52:37;98414.94;;;22.37;57.76
40117;BME280;25829;50.228;18.936;2022-08-01T11:58:48;98407.44;;;22.34;58.12
40117;BME280;25829;50.228;18.936;2022-08-01T12:01:50;98406.34;;;22.35;58.51
40117;BME280;25829;50.228;18.936;2022-08-01T12:07:57;98393.59;;;22.46;58.41
40117;BME280;25829;50.228;18.936;2022-08-01T12:10:58;98390.88;;;22.51;57.73
40117;BME280;25829;50.228;18.936;2022-08-01T12:14:00;98396.75;;;22.53;57.17
40117;BME280;25829;50.228;18.936;2022-08-01T12:17:01;98397.75;;;22.57;57.21
40117;BME280;25829;50.228;18.936;2022-08-01T12:20:05;98391.56;;;22.62;57.11
40117;BME280;25829;50.228;18.936;2022-08-01T12:23:08;98391.22;;;22.69;57.25
40117;BME280;25829;50.228;18.936;2022-08-01T12:26:09;98389.53;;;22.73;57.10
40117;BME280;25829;50.228;18.936;2022-08-01T12:29:10;98387.88;;;22.77;57.06
40117;BME280;25829;50.228;18.936;2022-08-01T12:32:32;98391.00;;;22.84;57.05
40117;BME280;25829;50.228;18.936;2022-08-01T12:35:34;98381.84;;;22.85;57.51
40117;BME280;25829;50.228;18.936;2022-08-01T12:38:36;98385.06;;;22.87;57.50
40117;BME280;25829;50.228;18.936;2022-08-01T12:41:38;98377.50;;;22.89;57.32
40117;BME280;25829;50.228;18.936;2022-08-01T12:44:40;98382.78;;;22.94;57.03
40117;BME280;25829;50.228;18.936;2022-08-01T12:47:42;98378.16;;;23.00;56.69
40117;BME280;25829;50.228;18.936;2022-08-01T12:50:49;98378.06;;;23.05;56.03
40117;BME280;25829;50.228;18.936;2022-08-01T12:53:53;98376.38;;;23.09;56.06
40117;BME280;25829;50.228;18.936;2022-08-01T12:56:54;98370.72;;;23.10;55.45
40117;BME280;25829;50.228;18.936;2022-08-01T13:00:12;98363.09;;;23.18;55.02
40117;BME280;25829;50.228;18.936;2022-08-01T13:03:16;98365.19;;;23.21;55.28
40117;BME280;25829;50.228;18.936;2022-08-01T13:06:17;98364.91;;;23.22;55.44
40117;BME280;25829;50.228;18.936;2022-08-01T13:09:18;98377.75;;;23.25;55.38
40117;BME280;25829;50.228;18.936;2022-08-01T13:12:19;98366.22;;;23.25;55.01
40117;BME280;25829;50.228;18.936;2022-08-01T13:15:24;98361.63;;;23.25;54.82
40117;BME280;25829;50.228;18.936;2022-08-01T13:18:28;98359.22;;;23.24;54.87
40117;BME280;25829;50.228;18.936;2022-08-01T13:21:30;98364.63;;;23.24;54.76
40117;BME280;25829;50.228;18.936;2022-08-01T13:24:31;98360.31;;;23.23;55.07
40117;BME280;25829;50.228;18.936;2022-08-01T13:27:32;98364.31;;;23.25;55.23
40117;BME280;25829;50.228;18.936;2022-08-01T13:30:32;98367.00;;;23.25;55.20
40117;BME280;25829;50.228;18.936;2022-08-01T13:33:42;98368.59;;;23.26;55.04
40117;BME280;25829;50.228;18.936;2022-08-01T13:36:43;98363.00;;;23.23;55.51
40117;BME280;25829;50.228;18.936;2022-08-01T13:39:44;98362.50;;;23.21;55.51
40117;BME280;25829;50.228;18.936;2022-08-01T13:42:44;98372.16;;;23.22;55.93
40117;BME280;25829;50.228;18.936;2022-08-01T13:45:45;98367.09;;;23.20;55.99
40117;BME280;25829;50.228;18.936;2022-08-01T13:48:46;98371.88;;;23.23;56.20
40117;BME280;25829;50.228;18.936;2022-08-01T13:51:47;98371.00;;;23.28;56.01
40117;BME280;25829;50.228;18.936;2022-08-01T13:54:50;98360.53;;;23.26;55.66
40117;BME280;25829;50.228;18.936;2022-08-01T13:57:51;98363.78;;;23.23;55.83
40117;BME280;25829;50.228;18.936;2022-08-01T14:00:51;98366.28;;;23.20;55.71
40117;BME280;25829;50.228;18.936;2022-08-01T14:03:52;98358.78;;;23.17;56.13
40117;BME280;25829;50.228;18.936;2022-08-01T14:06:53;98360.97;;;23.15;56.38
40117;BME280;25829;50.228;18.936;2022-08-01T14:09:54;98362.06;;;23.14;56.54
40117;BME280;25829;50.228;18.936;2022-08-01T14:12:55;98368.53;;;23.12;56.76
40117;BME280;25829;50.228;18.936;2022-08-01T14:15:58;98369.06;;;23.15;56.85
40117;BME280;25829;50.228;18.936;2022-08-01T14:18:58;98365.84;;;23.12;56.64
40117;BME280;25829;50.228;18.936;2022-08-01T14:21:59;98369.31;;;23.13;57.06
40117;BME280;25829;50.228;18.936;2022-08-01T14:25:00;98365.84;;;23.12;56.52
40117;BME280;25829;50.228;18.936;2022-08-01T14:28:01;98369.94;;;23.10;56.82
40117;BME280;25829;50.228;18.936;2022-08-01T14:31:08;98379.06;;;23.09;56.58
40117;BME280;25829;50.228;18.936;2022-08-01T14:34:09;98379.06;;;23.09;56.92
40117;BME280;25829;50.228;18.936;2022-08-01T14:37:10;98379.81;;;23.15;57.01
40117;BME280;25829;50.228;18.936;2022-08-01T14:40:11;98385.94;;;23.20;56.63
40117;BME280;25829;50.228;18.936;2022-08-01T14:43:13;98387.53;;;23.21;56.74
40117;BME280;25829;50.228;18.936;2022-08-01T14:47:39;98378.13;;;23.19;56.61
40117;BME280;25829;50.228;18.936;2022-08-01T14:52:06;98380.31;;;23.17;56.18
40117;BME280;25829;50.228;18.936;2022-08-01T15:01:07;98382.50;;;23.15;56.73
40117;BME280;25829;50.228;18.936;2022-08-01T15:05:51;98379.88;;;23.09;57.07
40117;BME280;25829;50.228;18.936;2022-08-01T15:10:14;98382.06;;;23.07;56.92
40117;BME280;25829;50.228;18.936;2022-08-01T15:13:58;98386.66;;;23.07;57.43
40117;BME280;25829;50.228;18.936;2022-08-01T15:17:22;98382.88;;;23.08;57.34
40117;BME280;25829;50.228;18.936;2022-08-01T15:20:24;98382.56;;;23.09;57.60
40117;BME280;25829;50.228;18.936;2022-08-01T15:23:27;98390.84;;;23.13;57.54
40117;BME280;25829;50.228;18.936;2022-08-01T15:26:28;98394.88;;;23.16;57.76
40117;BME280;25829;50.228;18.936;2022-08-01T15:29:30;98394.66;;;23.12;57.60
40117;BME280;25829;50.228;18.936;2022-08-01T15:32:31;98393.63;;;23.08;57.22
40117;BME280;25829;50.228;18.936;2022-08-01T15:35:32;98388.03;;;23.04;57.42
40117;BME280;25829;50.228;18.936;2022-08-01T15:38:33;98395.59;;;23.02;57.38
40117;BME280;25829;50.228;18.936;2022-08-01T15:41:34;98384.34;;;23.00;57.62
40117;BME280;25829;50.228;18.936;2022-08-01T15:44:35;98394.56;;;22.98;57.61
40117;BME280;25829;50.228;18.936;2022-08-01T15:47:36;98395.38;;;22.99;58.21
40117;BME280;25829;50.228;18.936;2022-08-01T15:50:36;98396.16;;;22.99;58.04
40117;BME280;25829;50.228;18.936;2022-08-01T15:53:38;98393.19;;;23.01;58.26
40117;BME280;25829;50.228;18.936;2022-08-01T15:56:39;98387.03;;;23.00;57.85
40117;BME280;25829;50.228;18.936;2022-08-01T15:59:40;98388.63;;;23.01;57.88
40117;BME280;25829;50.228;18.936;2022-08-01T16:02:41;98390.72;;;23.04;57.87
40117;BME280;25829;50.228;18.936;2022-08-01T16:05:41;98387.72;;;23.06;57.73
40117;BME280;25829;50.228;18.936;2022-08-01T16:08:43;98389.03;;;23.08;57.50
40117;BME280;25829;50.228;18.936;2022-08-01T16:11:44;98383.88;;;23.12;57.51
40117;BME280;25829;50.228;18.936;2022-08-01T16:14:45;98390.28;;;23.16;57.63
40117;BME280;25829;50.228;18.936;2022-08-01T16:17:46;98383.81;;;23.17;57.75
40117;BME280;25829;50.228;18.936;2022-08-01T16:20:46;98383.31;;;23.15;57.14
40117;BME280;25829;50.228;18.936;2022-08-01T16:23:47;98383.09;;;23.11;57.33
40117;BME280;25829;50.228;18.936;2022-08-01T16:26:48;98387.47;;;23.07;57.22
40117;BME280;25829;50.228;18.936;2022-08-01T16:29:48;98387.25;;;23.04;57.40
40117;BME280;25829;50.228;18.936;2022-08-01T16:32:49;98387.81;;;23.01;57.75
40117;BME280;25829;50.228;18.936;2022-08-01T16:35:50;98388.09;;;22.99;57.74
40117;BME280;25829;50.228;18.936;2022-08-01T16:38:52;98391.16;;;22.93;57.61
40117;BME280;25829;50.228;18.936;2022-08-01T16:41:53;98381.00;;;22.90;57.52
40117;BME280;25829;50.228;18.936;2022-08-01T16:44:54;98383.47;;;22.86;57.57
40117;BME280;25829;50.228;18.936;2022-08-01T16:47:55;98378.13;;;22.81;57.19
40117;BME280;25829;50.228;18.936;2022-08-01T16:50:59;98385.50;;;22.75;57.36